LIRELIBP

Guest
Details From LIRE - Pratica Di Mare
To LIBP - PESCARA
Flight Number -
Tags generated
Created
Modified
Stats Distance 91 nm / 168 km
Max Altitude 3,000 ft / 914 m
Waypoints 3
Social Downloads 0
Likes 0
Share VATSIM

Download

Looking for another format? Having issues loading an existing format? Contact us
Advertisement - Login to hide

Notes

Basic altitude profile: - Ascent Rate: 2500ft/min - Ascent Speed: 250kts - Cruise Altitude: 150ft - Cruise Speed: 420kts - Descent Rate: 1500ft/min - Descent Speed: 250kts Options: - Use NATs: yes - Use PACOTS: yes - Use low airways: yes - Use high airways: yes

Route

LIRE LANNO LIBP

ID Type Via Altitude Latitude Longitude Leg Dist Tot Dist Heading (true) Name
O LIRE APT - 0 ft / 0 m 41.65452˚ 12.44518˚ - 0 nm - Pratica Di Mare
LANNO FIX - 3,000 ft / 914 m 42.34194˚ 13.88833˚ 76 nm 76 nm 57° / 58° -
O LIBP APT - 0 ft / 0 m 42.43126˚ 14.18303˚ 14 nm 90 nm 68° / 68° PESCARA

Altitude Profile

Advertisement - Login to hide

LIRE

Details ICAO LIRE
Name Pratica Di Mare
Region Italy
Timezone Europe/Rome (UTC+1.0)
Stats Elevation 39 ft / 12 m (AMSL)
Location 41.654524° 12.445184°
Runways 2
Magnetic Variation 3.023° E

METAR

LIRE 131955Z 26008KT 9999 SCT040 12/07 Q1018 RMK SCT VIS MIN 9999 WIND THR13 25008KT WIND THR31 26007KT BLU

Decode

TAF

Not found

Departure Runways

ID Width Length Bearing (true) Bearing (mag) Surface Threshold Offset Overrun Length
13 148 ft / 45 m 8,340 ft / 2,542 m 130.05° 127.03° Asphalt 500 ft / 152 m 0 ft / 0 m
13L 98 ft / 30 m 8,135 ft / 2,479 m 130.02° 127.00° Asphalt 430 ft / 131 m 0 ft / 0 m
31 148 ft / 45 m 8,340 ft / 2,542 m 310.07° 307.05° Asphalt 350 ft / 107 m 700 ft / 213 m
31R 98 ft / 30 m 8,135 ft / 2,479 m 310.03° 307.01° Asphalt 430 ft / 131 m 0 ft / 0 m

LIBP

Details ICAO LIBP (PSR)
Name PESCARA
Region Italy
Timezone Europe/Rome (UTC+1.0)
Stats Elevation 48 ft / 15 m (AMSL)
Location 42.431257° 14.183030°
Runways 1
Magnetic Variation 3.381° E

METAR

LIBP 131950Z 21004KT 4000 BR NSC 06/06 Q1017

Decode

TAF

TAF LIBP 131700Z 1318/1418 22008KT 9999 SCT020 BECMG 1402/1405 22015G25KT

Decode

Destination Runways

ID Width Length Bearing (true) Bearing (mag) Surface Threshold Offset Overrun Length
04 148 ft / 45 m 7,943 ft / 2,421 m 37.19° 33.81° Asphalt 344 ft / 105 m 0 ft / 0 m
22 148 ft / 45 m 7,943 ft / 2,421 m 217.21° 213.83° Asphalt 617 ft / 188 m 0 ft / 0 m

Approach Navaids

Runway Type Ident Frequency Range Bearing (true) Bearing (mag) Slope Elevation
22 Localiser IPS 110.70 MHz 18 nm / 33 km 217.39° 214.01° - 48 ft / 15 m (AMSL)
22 Glidescope IPS 110.70 MHz 10 nm / 19 km 217.20° 213.82° 3.00° 48 ft / 15 m (AMSL)
22 DME IPS 110.70 MHz 18 nm / 33 km - - - 48 ft / 15 m (AMSL)